Time;durP1;ratioP1;P1;durP2;ratioP2;P2;SDS_P1;SDS_P2;PMS_P1;PMS_P2;Temp;Humidity;BMP_temperature;BMP_pressure;BME280_temperature;BME280_humidity;BME280_pressure;Samples;Min_cycle;Max_cycle;Signal;HPM_P1;HPM_P2
2021/12/23 00:00:54;;;;;;;16.67;9.63;;;;;;;;;;5012773;28;20478;-49
2021/12/23 00:03:20;;;;;;;17.20;9.00;;;;;;;;;;5012158;28;20204;-49
2021/12/23 00:05:46;;;;;;;18.03;10.93;;;;;;;;;;5011377;28;20640;-49
2021/12/23 00:08:12;;;;;;;21.43;11.70;;;;;;;;;;5012535;28;20403;-49
2021/12/23 00:10:39;;;;;;;12.07;8.95;;;;;;;;;;5012504;28;20518;-48
2021/12/23 00:13:05;;;;;;;17.00;9.80;;;;;;;;;;5012544;28;20161;-48
2021/12/23 00:16:18;;;;;;;16.07;9.43;;;;;;;;;;5010908;28;20171;-48
2021/12/23 00:18:40;;;;;;;16.33;10.98;;;;;;;;;;4998278;28;20489;-48
2021/12/23 00:23:53;;;;;;;14.00;9.65;;;;;;;;;;5012584;28;20199;-51
2021/12/23 00:26:19;;;;;;;16.70;10.52;;;;;;;;;;5011595;28;20269;-48
2021/12/23 00:28:45;;;;;;;18.20;11.05;;;;;;;;;;5011826;28;20657;-48
2021/12/23 00:31:11;;;;;;;17.33;10.80;;;;;;;;;;5012241;28;20227;-49
2021/12/23 00:33:39;;;;;;;17.55;10.48;;;;;;;;;;5012144;28;20772;-49
2021/12/23 00:36:08;;;;;;;17.50;9.77;;;;;;;;;;5011816;28;20181;-50
2021/12/23 00:38:38;;;;;;;15.70;11.10;;;;;;;;;;5012119;28;20160;-49
2021/12/23 00:41:04;;;;;;;17.90;11.13;;;;;;;;;;5012157;28;20588;-48
2021/12/23 00:43:31;;;;;;;13.82;9.00;;;;;;;;;;5012344;28;20173;-48
2021/12/23 00:45:57;;;;;;;15.82;9.50;;;;;;;;;;5011345;28;20609;-48
2021/12/23 00:48:23;;;;;;;17.48;11.02;;;;;;;;;;5012000;28;20172;-49
2021/12/23 00:50:49;;;;;;;14.17;10.23;;;;;;;;;;5012179;28;20565;-49
2021/12/23 00:53:22;;;;;;;14.48;10.02;;;;;;;;;;5012080;28;20395;-49
2021/12/23 00:55:51;;;;;;;13.48;10.05;;;;;;;;;;5011209;28;20234;-48
2021/12/23 00:58:17;;;;;;;12.93;10.20;;;;;;;;;;5012059;28;20171;-49
2021/12/23 01:00:44;;;;;;;20.65;11.18;;;;;;;;;;5011940;28;20176;-48
2021/12/23 01:03:10;;;;;;;20.45;10.15;;;;;;;;;;5012111;28;20177;-48
2021/12/23 01:05:37;;;;;;;13.85;10.18;;;;;;;;;;5011081;28;20614;-48
2021/12/23 01:08:03;;;;;;;18.27;10.88;;;;;;;;;;5011825;28;20181;-48
2021/12/23 01:10:30;;;;;;;20.42;11.13;;;;;;;;;;5011756;28;20303;-49
2021/12/23 01:13:03;;;;;;;15.70;10.50;;;;;;;;;;5011859;28;20171;-48
2021/12/23 01:18:07;;;;;;;19.17;11.23;;;;;;;;;;5015904;28;20174;-48
2021/12/23 01:20:36;;;;;;;16.33;11.85;;;;;;;;;;5015675;28;20246;-51
2021/12/23 01:23:06;;;;;;;18.33;10.55;;;;;;;;;;5015718;28;20160;-48
2021/12/23 01:25:33;;;;;;;19.27;11.30;;;;;;;;;;5014837;28;20176;-52
2021/12/23 01:27:59;;;;;;;19.15;11.70;;;;;;;;;;5015607;28;20267;-49
2021/12/23 01:30:25;;;;;;;15.23;10.73;;;;;;;;;;5015454;28;20719;-49
2021/12/23 01:32:54;;;;;;;18.73;10.10;;;;;;;;;;5015551;28;20176;-49
2021/12/23 01:35:20;;;;;;;18.55;11.32;;;;;;;;;;5014630;28;20226;-49
2021/12/23 01:37:46;;;;;;;14.68;9.68;;;;;;;;;;5015333;28;20630;-48
2021/12/23 01:40:13;;;;;;;14.97;9.93;;;;;;;;;;5015452;28;20172;-49
2021/12/23 01:42:39;;;;;;;15.55;10.55;;;;;;;;;;5015351;28;20914;-48
2021/12/23 01:45:09;;;;;;;18.98;11.15;;;;;;;;;;5014567;28;20191;-50
2021/12/23 01:47:35;;;;;;;22.15;11.77;;;;;;;;;;5015150;28;20200;-48
2021/12/23 01:50:01;;;;;;;19.40;11.80;;;;;;;;;;5015013;28;20200;-48
2021/12/23 01:52:27;;;;;;;15.63;9.57;;;;;;;;;;5015066;28;20406;-48
2021/12/23 01:54:54;;;;;;;18.33;11.47;;;;;;;;;;5014451;28;20395;-48
2021/12/23 01:57:20;;;;;;;14.98;10.02;;;;;;;;;;5014898;28;20423;-49
2021/12/23 01:59:46;;;;;;;19.98;11.23;;;;;;;;;;5015031;28;20645;-48
2021/12/23 02:02:12;;;;;;;14.70;9.50;;;;;;;;;;5014140;28;20211;-49
2021/12/23 02:04:38;;;;;;;18.33;11.85;;;;;;;;;;5013758;28;20408;-49
2021/12/23 02:07:04;;;;;;;17.93;10.67;;;;;;;;;;5014307;28;20609;-48
2021/12/23 02:09:30;;;;;;;14.63;10.80;;;;;;;;;;5014147;28;20422;-49
2021/12/23 02:11:56;;;;;;;19.67;12.27;;;;;;;;;;5014743;28;20636;-48
2021/12/23 02:14:23;;;;;;;15.98;11.35;;;;;;;;;;5014718;28;20486;-49
2021/12/23 02:16:49;;;;;;;22.48;11.38;;;;;;;;;;5013890;28;20184;-48
2021/12/23 02:19:18;;;;;;;19.35;10.93;;;;;;;;;;5014580;28;20168;-49
2021/12/23 02:21:48;;;;;;;19.45;11.18;;;;;;;;;;5014652;28;20172;-48
2021/12/23 02:24:16;;;;;;;21.00;12.32;;;;;;;;;;5014534;28;20226;-50
2021/12/23 02:26:43;;;;;;;19.25;10.63;;;;;;;;;;5013103;28;20184;-51
2021/12/23 02:29:09;;;;;;;18.60;12.60;;;;;;;;;;5014333;28;20199;-49
2021/12/23 02:31:35;;;;;;;21.05;11.40;;;;;;;;;;5014182;28;20628;-49
2021/12/23 02:34:01;;;;;;;18.10;12.15;;;;;;;;;;5014323;28;20187;-50
2021/12/23 02:36:27;;;;;;;19.77;12.03;;;;;;;;;;5013218;28;20184;-51
2021/12/23 02:38:54;;;;;;;18.70;11.80;;;;;;;;;;5014255;28;20478;-49
2021/12/23 02:41:20;;;;;;;21.95;12.90;;;;;;;;;;5014255;28;20554;-49
2021/12/23 02:43:46;;;;;;;19.67;11.82;;;;;;;;;;5012870;28;20210;-49
2021/12/23 02:46:13;;;;;;;20.87;12.47;;;;;;;;;;5013228;28;20553;-49
2021/12/23 02:48:40;;;;;;;22.05;12.88;;;;;;;;;;5014111;28;20399;-49
2021/12/23 02:51:12;;;;;;;19.40;12.00;;;;;;;;;;5013982;28;20745;-49
2021/12/23 02:53:38;;;;;;;25.88;13.95;;;;;;;;;;5013961;28;20423;-48
2021/12/23 02:56:07;;;;;;;22.10;12.85;;;;;;;;;;5013216;28;20188;-49
2021/12/23 02:58:33;;;;;;;21.85;12.40;;;;;;;;;;5013896;28;20195;-49
2021/12/23 03:01:00;;;;;;;23.98;12.80;;;;;;;;;;5013909;28;20169;-48
2021/12/23 03:03:26;;;;;;;20.90;12.77;;;;;;;;;;5013725;28;20192;-48
2021/12/23 03:05:54;;;;;;;20.37;12.23;;;;;;;;;;5013005;28;20683;-48
2021/12/23 03:08:49;;;;;;;21.85;12.82;;;;;;;;;;5013654;28;20488;-49
2021/12/23 03:11:17;;;;;;;21.48;13.07;;;;;;;;;;5004976;28;20603;-48
2021/12/23 03:13:43;;;;;;;19.75;12.70;;;;;;;;;;5013651;28;20427;-48
2021/12/23 03:16:09;;;;;;;24.58;13.30;;;;;;;;;;5012798;28;20184;-51
2021/12/23 03:18:36;;;;;;;18.83;11.65;;;;;;;;;;5013538;28;20180;-51
2021/12/23 03:21:02;;;;;;;18.63;10.82;;;;;;;;;;5013528;28;20192;-49
2021/12/23 03:23:28;;;;;;;24.15;14.35;;;;;;;;;;5013344;28;20644;-49
2021/12/23 03:25:54;;;;;;;26.50;15.00;;;;;;;;;;5012594;28;20192;-50
2021/12/23 03:28:20;;;;;;;21.00;13.23;;;;;;;;;;5013235;28;20426;-51
2021/12/23 03:30:47;;;;;;;18.83;11.67;;;;;;;;;;5013222;28;20200;-49
2021/12/23 03:33:12;;;;;;;18.70;12.15;;;;;;;;;;5013240;28;20523;-49
2021/12/23 03:35:39;;;;;;;21.53;11.93;;;;;;;;;;5012359;28;20188;-51
2021/12/23 03:38:05;;;;;;;21.25;13.45;;;;;;;;;;5012838;28;20398;-49
2021/12/23 03:40:33;;;;;;;19.95;13.32;;;;;;;;;;5012283;28;20207;-49
2021/12/23 03:43:00;;;;;;;25.25;13.88;;;;;;;;;;5013307;28;20168;-48
2021/12/23 03:45:26;;;;;;;25.00;13.98;;;;;;;;;;5012080;28;20238;-54
2021/12/23 03:47:52;;;;;;;19.97;13.93;;;;;;;;;;5013087;28;20176;-48
2021/12/23 03:50:19;;;;;;;27.93;14.63;;;;;;;;;;5013225;28;20454;-48
2021/12/23 03:52:46;;;;;;;18.65;11.82;;;;;;;;;;5012820;28;20810;-48
2021/12/23 03:55:12;;;;;;;26.48;14.75;;;;;;;;;;5012175;28;20637;-51
2021/12/23 03:57:38;;;;;;;25.00;13.45;;;;;;;;;;5012717;28;20242;-48
2021/12/23 04:00:06;;;;;;;24.50;13.50;;;;;;;;;;5012754;28;20250;-49
2021/12/23 04:02:32;;;;;;;24.33;12.68;;;;;;;;;;5013073;28;20203;-51
2021/12/23 04:04:58;;;;;;;28.35;14.13;;;;;;;;;;5011980;28;20183;-48
2021/12/23 04:07:24;;;;;;;21.52;13.57;;;;;;;;;;5012511;28;20188;-48
2021/12/23 04:09:50;;;;;;;28.50;14.80;;;;;;;;;;5012449;28;20207;-49
2021/12/23 04:12:16;;;;;;;18.43;13.07;;;;;;;;;;5012605;28;20498;-49
2021/12/23 04:14:42;;;;;;;23.85;13.75;;;;;;;;;;5011831;28;20884;-48
2021/12/23 04:17:08;;;;;;;20.70;13.27;;;;;;;;;;5012284;28;20197;-49
2021/12/23 04:19:34;;;;;;;21.20;14.30;;;;;;;;;;5012513;28;20407;-49
2021/12/23 04:22:00;;;;;;;23.85;13.68;;;;;;;;;;5012313;28;20395;-49
2021/12/23 04:24:27;;;;;;;20.15;12.10;;;;;;;;;;5012231;28;20633;-55
2021/12/23 04:26:53;;;;;;;22.05;11.90;;;;;;;;;;5011894;28;20187;-48
2021/12/23 04:29:19;;;;;;;20.67;12.90;;;;;;;;;;5012272;28;20191;-49
2021/12/23 04:31:45;;;;;;;24.73;14.07;;;;;;;;;;5012145;28;20200;-49
2021/12/23 04:34:11;;;;;;;20.63;12.63;;;;;;;;;;5012295;28;20168;-49
2021/12/23 04:36:37;;;;;;;25.88;16.15;;;;;;;;;;5011346;28;20488;-49
2021/12/23 04:39:04;;;;;;;26.85;14.15;;;;;;;;;;5012217;28;20575;-49
2021/12/23 04:41:31;;;;;;;20.55;12.70;;;;;;;;;;5012114;28;20174;-48
2021/12/23 04:43:57;;;;;;;22.75;13.70;;;;;;;;;;5013032;28;20192;-49
2021/12/23 04:46:23;;;;;;;22.25;13.55;;;;;;;;;;5011269;28;20621;-49
2021/12/23 04:48:50;;;;;;;26.40;13.95;;;;;;;;;;5012135;28;20540;-49
2021/12/23 04:51:16;;;;;;;23.25;14.00;;;;;;;;;;5011479;28;20231;-49
2021/12/23 04:53:42;;;;;;;24.92;15.57;;;;;;;;;;5012082;28;20175;-49
2021/12/23 04:56:08;;;;;;;20.85;12.93;;;;;;;;;;5011141;28;20195;-48
2021/12/23 04:58:36;;;;;;;23.08;12.65;;;;;;;;;;5012011;28;20169;-49
2021/12/23 05:01:03;;;;;;;23.15;13.43;;;;;;;;;;5011995;28;20179;-48
2021/12/23 05:03:29;;;;;;;28.80;15.32;;;;;;;;;;5011942;28;20226;-49
2021/12/23 05:05:55;;;;;;;27.33;13.60;;;;;;;;;;5011514;28;20200;-49
2021/12/23 05:08:21;;;;;;;20.50;13.27;;;;;;;;;;5011646;28;20899;-49
2021/12/23 05:10:47;;;;;;;25.00;13.97;;;;;;;;;;5012228;28;20199;-50
2021/12/23 05:13:13;;;;;;;29.90;15.25;;;;;;;;;;5011701;28;20428;-49
2021/12/23 05:15:39;;;;;;;24.80;14.20;;;;;;;;;;5011000;28;20556;-48
2021/12/23 05:18:06;;;;;;;27.77;14.65;;;;;;;;;;5011709;28;20171;-51
2021/12/23 05:20:32;;;;;;;20.65;13.40;;;;;;;;;;5011800;28;20177;-49
2021/12/23 05:22:58;;;;;;;29.42;15.63;;;;;;;;;;5011702;28;20700;-48
2021/12/23 05:25:24;;;;;;;27.38;14.88;;;;;;;;;;5011359;28;20164;-49
2021/12/23 05:27:54;;;;;;;26.13;13.95;;;;;;;;;;5011155;28;20564;-49
2021/12/23 05:30:21;;;;;;;36.63;16.05;;;;;;;;;;5011622;28;20188;-49
2021/12/23 05:32:49;;;;;;;24.65;14.50;;;;;;;;;;5011564;28;20231;-49
2021/12/23 05:35:18;;;;;;;25.98;13.52;;;;;;;;;;5011125;28;20176;-49
2021/12/23 05:37:44;;;;;;;23.02;13.65;;;;;;;;;;5011924;28;20196;-48
2021/12/23 05:40:13;;;;;;;22.08;13.98;;;;;;;;;;5011789;28;20503;-48
2021/12/23 05:42:39;;;;;;;30.80;14.10;;;;;;;;;;5010401;28;20195;-48
2021/12/23 05:45:05;;;;;;;23.63;14.05;;;;;;;;;;5010879;28;20176;-48
2021/12/23 05:47:32;;;;;;;23.58;12.82;;;;;;;;;;5011243;28;20232;-48
2021/12/23 05:49:59;;;;;;;28.40;16.15;;;;;;;;;;5011467;28;20235;-48
2021/12/23 05:52:24;;;;;;;25.23;15.25;;;;;;;;;;5011394;28;20164;-48
2021/12/23 05:54:50;;;;;;;22.70;14.43;;;;;;;;;;5010868;28;20172;-48
2021/12/23 05:57:17;;;;;;;22.93;13.87;;;;;;;;;;5011352;28;20193;-48
2021/12/23 05:59:43;;;;;;;24.73;13.90;;;;;;;;;;5011319;28;20400;-48
2021/12/23 06:02:11;;;;;;;28.13;14.32;;;;;;;;;;5011944;28;20200;-48
2021/12/23 06:04:37;;;;;;;28.08;15.18;;;;;;;;;;5014234;28;20211;-48
2021/12/23 06:07:03;;;;;;;23.07;13.57;;;;;;;;;;5014821;28;20193;-49
2021/12/23 06:09:29;;;;;;;22.75;15.35;;;;;;;;;;5015050;28;20391;-48
2021/12/23 06:11:55;;;;;;;22.10;13.68;;;;;;;;;;5014882;28;20165;-48
2021/12/23 06:14:22;;;;;;;26.48;14.02;;;;;;;;;;5014620;28;20169;-49
2021/12/23 06:16:48;;;;;;;32.03;14.30;;;;;;;;;;5014001;28;20184;-49
2021/12/23 06:19:14;;;;;;;22.55;13.05;;;;;;;;;;5014624;28;20164;-48
2021/12/23 06:21:40;;;;;;;27.33;14.10;;;;;;;;;;5014574;28;20187;-49
2021/12/23 06:24:06;;;;;;;25.80;14.80;;;;;;;;;;5014869;28;20632;-48
2021/12/23 06:26:32;;;;;;;20.25;13.60;;;;;;;;;;5013644;28;20419;-49
2021/12/23 06:29:09;;;;;;;27.40;14.63;;;;;;;;;;5014253;28;20275;-49
2021/12/23 06:31:35;;;;;;;22.15;13.48;;;;;;;;;;5013564;28;20227;-48
2021/12/23 06:34:01;;;;;;;26.43;15.27;;;;;;;;;;5014488;28;20267;-48
2021/12/23 06:36:27;;;;;;;24.27;14.67;;;;;;;;;;5013610;28;20795;-48
2021/12/23 06:38:53;;;;;;;24.83;15.67;;;;;;;;;;5014316;28;20408;-48
2021/12/23 06:41:19;;;;;;;23.90;14.40;;;;;;;;;;5014193;28;20399;-48
2021/12/23 06:43:46;;;;;;;26.53;14.60;;;;;;;;;;5014323;28;20819;-49
2021/12/23 06:46:12;;;;;;;22.73;13.70;;;;;;;;;;5013374;28;20448;-48
2021/12/23 06:48:38;;;;;;;30.15;14.85;;;;;;;;;;5014128;28;20178;-49
2021/12/23 06:51:04;;;;;;;25.77;14.60;;;;;;;;;;5013989;28;20207;-49
2021/12/23 06:53:30;;;;;;;25.83;13.57;;;;;;;;;;5014018;28;20431;-48
2021/12/23 06:55:56;;;;;;;24.13;13.70;;;;;;;;;;5012969;28;20187;-49
2021/12/23 06:58:23;;;;;;;24.57;15.20;;;;;;;;;;5014371;28;20168;-49
2021/12/23 07:00:50;;;;;;;28.10;16.05;;;;;;;;;;5013891;28;20430;-52
2021/12/23 07:03:16;;;;;;;27.70;15.77;;;;;;;;;;5014045;28;20255;-49
2021/12/23 07:05:43;;;;;;;26.30;14.93;;;;;;;;;;5012898;28;20188;-49
2021/12/23 07:08:15;;;;;;;26.13;13.98;;;;;;;;;;5013835;28;20172;-48
2021/12/23 07:10:41;;;;;;;24.05;13.65;;;;;;;;;;5013525;28;20199;-49
2021/12/23 07:13:07;;;;;;;27.13;14.37;;;;;;;;;;5013436;28;20180;-49
2021/12/23 07:15:34;;;;;;;21.85;14.00;;;;;;;;;;5013002;28;20391;-49
2021/12/23 07:18:00;;;;;;;24.50;14.73;;;;;;;;;;5013694;28;20291;-49
2021/12/23 07:20:27;;;;;;;27.90;16.13;;;;;;;;;;5013602;28;20568;-49
2021/12/23 07:22:53;;;;;;;25.55;14.93;;;;;;;;;;5013510;28;20179;-49
2021/12/23 07:25:19;;;;;;;28.98;14.25;;;;;;;;;;5012533;28;20255;-50
2021/12/23 07:27:45;;;;;;;23.92;15.07;;;;;;;;;;5013115;28;20191;-51
2021/12/23 07:30:13;;;;;;;23.80;14.77;;;;;;;;;;5013328;28;20207;-51
2021/12/23 07:32:39;;;;;;;25.20;15.50;;;;;;;;;;5013442;28;20161;-52
2021/12/23 07:35:06;;;;;;;27.25;15.25;;;;;;;;;;5012451;28;20168;-49
2021/12/23 07:37:32;;;;;;;26.48;15.82;;;;;;;;;;5013379;28;20184;-51
2021/12/23 07:39:58;;;;;;;29.88;15.07;;;;;;;;;;5013074;28;20180;-51
2021/12/23 07:42:26;;;;;;;29.27;14.88;;;;;;;;;;5012980;28;20226;-48
2021/12/23 07:44:52;;;;;;;25.70;15.07;;;;;;;;;;5012586;28;20508;-49
2021/12/23 07:47:18;;;;;;;22.83;13.73;;;;;;;;;;5012882;28;20617;-51
2021/12/23 07:49:45;;;;;;;25.75;14.88;;;;;;;;;;5012833;28;20177;-48
2021/12/23 07:52:11;;;;;;;29.23;16.30;;;;;;;;;;5012769;28;20167;-49
2021/12/23 07:54:37;;;;;;;27.83;15.57;;;;;;;;;;5012313;28;20168;-51
2021/12/23 07:57:04;;;;;;;26.63;13.80;;;;;;;;;;5012685;28;20584;-49
2021/12/23 07:59:30;;;;;;;25.33;15.00;;;;;;;;;;5012847;28;20584;-49
2021/12/23 08:01:56;;;;;;;26.13;14.70;;;;;;;;;;5012701;28;20168;-49
2021/12/23 08:04:23;;;;;;;22.63;14.13;;;;;;;;;;5012755;28;20176;-49
2021/12/23 08:06:55;;;;;;;27.98;15.77;;;;;;;;;;5011765;28;20192;-49
2021/12/23 08:09:21;;;;;;;26.48;15.40;;;;;;;;;;5012747;28;20176;-49
2021/12/23 08:11:47;;;;;;;26.97;15.90;;;;;;;;;;5012531;28;20204;-49
2021/12/23 08:14:13;;;;;;;22.07;14.23;;;;;;;;;;5012578;28;20404;-49
2021/12/23 08:16:38;;;;;;;30.90;15.50;;;;;;;;;;5011635;28;20419;-50
2021/12/23 08:19:04;;;;;;;25.20;15.23;;;;;;;;;;5012548;28;20402;-49
2021/12/23 08:21:30;;;;;;;25.27;13.97;;;;;;;;;;5012288;28;20439;-52
2021/12/23 08:23:56;;;;;;;23.67;13.90;;;;;;;;;;5012443;28;20411;-49
2021/12/23 08:26:27;;;;;;;24.48;14.13;;;;;;;;;;5011029;28;20510;-49
2021/12/23 08:28:54;;;;;;;24.38;13.55;;;;;;;;;;5012310;28;20195;-49
2021/12/23 08:31:21;;;;;;;23.83;14.25;;;;;;;;;;5012284;28;20224;-49
2021/12/23 08:33:47;;;;;;;26.83;15.23;;;;;;;;;;5012230;28;20402;-49
2021/12/23 08:36:13;;;;;;;24.00;14.60;;;;;;;;;;5011611;28;20181;-48
2021/12/23 08:38:40;;;;;;;29.03;14.07;;;;;;;;;;5012118;28;20606;-49
2021/12/23 08:41:06;;;;;;;25.20;14.65;;;;;;;;;;5012142;28;20403;-49
2021/12/23 08:43:32;;;;;;;30.30;14.00;;;;;;;;;;5012145;28;20182;-49
2021/12/23 08:45:58;;;;;;;27.07;14.93;;;;;;;;;;5011419;28;20188;-50
2021/12/23 08:48:24;;;;;;;23.15;13.48;;;;;;;;;;5012032;28;20414;-51
2021/12/23 08:50:50;;;;;;;26.77;14.60;;;;;;;;;;5012163;28;20222;-49
2021/12/23 08:53:16;;;;;;;23.53;14.30;;;;;;;;;;5012068;28;20411;-49
2021/12/23 08:55:42;;;;;;;23.05;14.68;;;;;;;;;;5011217;28;20890;-49
2021/12/23 08:58:08;;;;;;;31.02;15.68;;;;;;;;;;5011939;28;20169;-48
2021/12/23 09:00:35;;;;;;;24.13;14.32;;;;;;;;;;5012025;28;20176;-49
2021/12/23 09:03:02;;;;;;;20.98;13.30;;;;;;;;;;5011839;28;20572;-49
2021/12/23 09:05:28;;;;;;;23.92;15.15;;;;;;;;;;5011213;28;20168;-49
2021/12/23 09:07:54;;;;;;;24.95;14.70;;;;;;;;;;5011891;28;20164;-49
2021/12/23 09:10:19;;;;;;;24.00;14.27;;;;;;;;;;5011796;28;20203;-48
2021/12/23 09:12:46;;;;;;;25.63;14.40;;;;;;;;;;5011908;28;20803;-49
2021/12/23 09:15:12;;;;;;;26.75;14.95;;;;;;;;;;5011122;28;20399;-49
2021/12/23 09:17:38;;;;;;;28.80;15.63;;;;;;;;;;5011605;28;20710;-49
2021/12/23 09:20:06;;;;;;;23.15;13.88;;;;;;;;;;5011696;28;20172;-49
2021/12/23 09:22:32;;;;;;;25.25;14.65;;;;;;;;;;5011750;28;20308;-51
2021/12/23 09:25:03;;;;;;;25.35;14.55;;;;;;;;;;5011049;28;20219;-48
2021/12/23 09:27:37;;;;;;;24.30;15.07;;;;;;;;;;5011632;28;20196;-48
2021/12/23 09:32:53;;;;;;;22.65;14.40;;;;;;;;;;4980933;28;20239;-49
2021/12/23 09:35:23;;;;;;;26.50;14.90;;;;;;;;;;5011156;28;20176;-49
2021/12/23 09:37:50;;;;;;;19.38;12.93;;;;;;;;;;5014825;28;20176;-49
2021/12/23 09:40:16;;;;;;;29.30;14.55;;;;;;;;;;5015369;28;20175;-49
2021/12/23 09:42:43;;;;;;;26.42;15.07;;;;;;;;;;5015355;28;20251;-49
2021/12/23 09:45:12;;;;;;;28.83;15.15;;;;;;;;;;5014590;28;20179;-51
2021/12/23 09:47:41;;;;;;;24.30;14.45;;;;;;;;;;5015145;28;20314;-49
2021/12/23 09:50:09;;;;;;;21.45;12.75;;;;;;;;;;5015182;28;20240;-48
2021/12/23 09:52:38;;;;;;;28.17;14.65;;;;;;;;;;5015295;28;20160;-49
2021/12/23 09:55:07;;;;;;;21.92;13.07;;;;;;;;;;5014257;28;20171;-51
2021/12/23 09:57:33;;;;;;;25.65;14.75;;;;;;;;;;5014979;28;20192;-50
2021/12/23 09:59:59;;;;;;;23.50;13.82;;;;;;;;;;5014985;28;20176;-50
2021/12/23 10:02:25;;;;;;;20.55;12.93;;;;;;;;;;5015230;28;20187;-49
2021/12/23 10:04:51;;;;;;;26.90;14.23;;;;;;;;;;5014210;28;20176;-49
2021/12/23 10:07:18;;;;;;;24.47;13.03;;;;;;;;;;5014752;28;20223;-48
2021/12/23 10:10:11;;;;;;;23.23;13.05;;;;;;;;;;5014599;28;20407;-49
2021/12/23 10:37:20;;;;;;;20.13;11.90;;;;;;;;;;5014103;28;20199;-51
2021/12/23 10:39:54;;;;;;;16.92;11.75;;;;;;;;;;5014410;28;20161;-49
2021/12/23 10:42:24;;;;;;;24.25;12.50;;;;;;;;;;5015019;28;20206;-49
2021/12/23 10:44:52;;;;;;;23.45;12.65;;;;;;;;;;5014038;28;20271;-49
2021/12/23 10:47:40;;;;;;;21.23;12.55;;;;;;;;;;5012007;28;20742;-50
2021/12/23 10:50:18;;;;;;;21.55;12.75;;;;;;;;;;5013815;28;20188;-49
2021/12/23 10:52:48;;;;;;;20.95;13.18;;;;;;;;;;5013916;28;20164;-49
2021/12/23 10:58:02;;;;;;;18.90;11.27;;;;;;;;;;5013479;28;20262;-49
2021/12/23 11:00:34;;;;;;;23.23;12.50;;;;;;;;;;5012571;28;20663;-51
2021/12/23 11:03:00;;;;;;;21.30;11.82;;;;;;;;;;5013214;28;20258;-49
2021/12/23 11:05:31;;;;;;;17.92;11.40;;;;;;;;;;5012942;28;20192;-49
2021/12/23 11:31:00;;;;;;;15.73;10.55;;;;;;;;;;5013474;28;20260;-50
2021/12/23 11:36:05;;;;;;;20.90;12.10;;;;;;;;;;5011701;28;20271;-50
2021/12/23 11:41:33;;;;;;;19.00;12.00;;;;;;;;;;5013096;28;20178;-50
2021/12/23 11:44:00;;;;;;;21.88;10.93;;;;;;;;;;5013309;28;20648;-49
2021/12/23 11:46:33;;;;;;;21.17;10.00;;;;;;;;;;5012275;28;20200;-50
2021/12/23 11:49:02;;;;;;;18.08;11.55;;;;;;;;;;5012998;28;20256;-50
2021/12/23 11:51:32;;;;;;;14.75;10.30;;;;;;;;;;5012859;28;20727;-49
2021/12/23 11:53:58;;;;;;;16.33;11.07;;;;;;;;;;5012918;28;20165;-49
2021/12/23 11:56:25;;;;;;;15.82;11.02;;;;;;;;;;5011698;28;20230;-49
2021/12/23 11:58:51;;;;;;;15.70;10.07;;;;;;;;;;5012679;28;20165;-50
2021/12/23 12:01:25;;;;;;;15.35;10.80;;;;;;;;;;5011787;28;20578;-50
2021/12/23 12:03:57;;;;;;;20.30;11.05;;;;;;;;;;5012779;28;20247;-50
2021/12/23 12:06:25;;;;;;;15.32;10.52;;;;;;;;;;5012109;28;20593;-50
2021/12/23 12:09:14;;;;;;;15.90;10.48;;;;;;;;;;5012691;28;20175;-51
2021/12/23 12:11:41;;;;;;;18.10;11.48;;;;;;;;;;5007140;28;20643;-49
2021/12/23 12:14:27;;;;;;;20.52;10.68;;;;;;;;;;5012974;28;20168;-49
2021/12/23 12:16:52;;;;;;;16.92;10.82;;;;;;;;;;5011935;28;20189;-49
2021/12/23 12:19:38;;;;;;;18.10;10.43;;;;;;;;;;5012724;28;20168;-50
2021/12/23 12:22:04;;;;;;;16.10;9.70;;;;;;;;;;5012306;28;20442;-50
2021/12/23 12:24:44;;;;;;;16.73;9.93;;;;;;;;;;5012015;28;20428;-52
2021/12/23 12:27:10;;;;;;;18.13;9.87;;;;;;;;;;5010774;28;20431;-50
2021/12/23 12:29:38;;;;;;;14.40;9.57;;;;;;;;;;5012311;28;20416;-50
2021/12/23 12:32:05;;;;;;;20.15;10.07;;;;;;;;;;5012231;28;20971;-50
2021/12/23 12:34:33;;;;;;;13.43;9.23;;;;;;;;;;5011951;28;20180;-50
2021/12/23 12:36:59;;;;;;;17.53;9.67;;;;;;;;;;5012017;28;20419;-50
2021/12/23 12:39:36;;;;;;;18.53;10.83;;;;;;;;;;5012221;28;20408;-49
2021/12/23 12:42:06;;;;;;;18.92;10.98;;;;;;;;;;5012208;28;20433;-50
2021/12/23 12:44:40;;;;;;;16.87;10.80;;;;;;;;;;5011596;28;20172;-50
2021/12/23 12:49:39;;;;;;;19.40;10.70;;;;;;;;;;5012280;28;20630;-50
2021/12/23 12:52:07;;;;;;;14.00;10.30;;;;;;;;;;5011969;28;20242;-50
2021/12/23 12:54:34;;;;;;;13.70;9.70;;;;;;;;;;5011346;28;20169;-49
2021/12/23 12:57:03;;;;;;;14.95;10.90;;;;;;;;;;5011910;28;20421;-50
2021/12/23 12:59:30;;;;;;;22.53;11.30;;;;;;;;;;5011899;28;20172;-49
2021/12/23 13:01:57;;;;;;;19.85;11.60;;;;;;;;;;5011879;28;20399;-50
2021/12/23 13:04:29;;;;;;;20.80;11.68;;;;;;;;;;5011840;28;20668;-50
2021/12/23 13:06:56;;;;;;;18.27;10.67;;;;;;;;;;5011394;28;20212;-50
2021/12/23 13:09:23;;;;;;;16.42;10.48;;;;;;;;;;5012106;28;20404;-49
2021/12/23 13:11:50;;;;;;;18.50;11.00;;;;;;;;;;5013618;28;20234;-49
2021/12/23 13:14:24;;;;;;;17.70;11.40;;;;;;;;;;5015793;28;20703;-50
2021/12/23 13:16:52;;;;;;;18.00;11.95;;;;;;;;;;5015255;28;20416;-50
2021/12/23 13:19:18;;;;;;;18.90;9.95;;;;;;;;;;5020094;28;20183;-50
2021/12/23 13:21:55;;;;;;;21.07;11.43;;;;;;;;;;5028899;28;20236;-51
2021/12/23 13:24:22;;;;;;;19.43;11.77;;;;;;;;;;5035367;28;20410;-49
2021/12/23 13:26:49;;;;;;;15.77;10.23;;;;;;;;;;5034731;28;20458;-50
2021/12/23 13:29:15;;;;;;;14.02;9.68;;;;;;;;;;5034924;28;20262;-49
2021/12/23 13:31:42;;;;;;;19.47;11.47;;;;;;;;;;5035191;28;20207;-49
2021/12/23 13:34:10;;;;;;;15.77;10.35;;;;;;;;;;5035431;28;20421;-50
2021/12/23 13:36:39;;;;;;;20.65;11.95;;;;;;;;;;5034439;28;20267;-49
2021/12/23 13:39:06;;;;;;;19.20;11.30;;;;;;;;;;5035176;28;20167;-50
2021/12/23 13:41:38;;;;;;;18.83;12.05;;;;;;;;;;5033794;28;20183;-49
2021/12/23 13:44:20;;;;;;;19.00;11.32;;;;;;;;;;5033253;28;20176;-49
2021/12/23 13:46:54;;;;;;;22.30;12.80;;;;;;;;;;5032942;28;20187;-50
2021/12/23 13:49:30;;;;;;;21.77;12.25;;;;;;;;;;5030229;28;20935;-49
2021/12/23 13:51:56;;;;;;;21.90;12.70;;;;;;;;;;5019712;28;20754;-49
2021/12/23 13:54:22;;;;;;;21.17;12.77;;;;;;;;;;5023120;28;20247;-49
2021/12/23 13:56:49;;;;;;;22.13;12.30;;;;;;;;;;5013520;28;20518;-50
2021/12/23 13:59:17;;;;;;;18.65;12.63;;;;;;;;;;5015085;28;20436;-49
2021/12/23 14:01:53;;;;;;;22.88;12.90;;;;;;;;;;5019973;28;20198;-49
2021/12/23 14:04:33;;;;;;;21.75;12.27;;;;;;;;;;5029534;28;20196;-49
2021/12/23 14:06:59;;;;;;;24.75;13.98;;;;;;;;;;5022202;28;20382;-49
2021/12/23 14:09:32;;;;;;;18.42;11.27;;;;;;;;;;5024955;28;20184;-50
2021/12/23 14:11:59;;;;;;;16.27;9.90;;;;;;;;;;5018606;28;20192;-49
2021/12/23 14:14:25;;;;;;;24.27;13.27;;;;;;;;;;5017399;28;20164;-50
2021/12/23 14:16:51;;;;;;;17.37;12.47;;;;;;;;;;5013965;28;20208;-49
2021/12/23 14:19:25;;;;;;;19.33;11.20;;;;;;;;;;5014648;28;20407;-49
2021/12/23 14:24:37;;;;;;;20.83;12.10;;;;;;;;;;5013779;28;20423;-50
2021/12/23 14:27:04;;;;;;;23.88;13.35;;;;;;;;;;5026932;28;20472;-50
2021/12/23 14:29:35;;;;;;;19.67;12.85;;;;;;;;;;5032988;28;20183;-50
2021/12/23 14:32:01;;;;;;;22.20;12.53;;;;;;;;;;5033760;28;20195;-50
2021/12/23 14:34:28;;;;;;;18.42;10.48;;;;;;;;;;5020861;28;20441;-50
2021/12/23 14:36:59;;;;;;;24.13;12.97;;;;;;;;;;5013470;28;20177;-49
2021/12/23 14:39:26;;;;;;;20.02;13.27;;;;;;;;;;5024830;28;20403;-49
2021/12/23 14:41:53;;;;;;;23.65;12.70;;;;;;;;;;5034066;28;20242;-49
2021/12/23 14:44:24;;;;;;;20.75;13.60;;;;;;;;;;5032961;28;20203;-49
2021/12/23 14:47:07;;;;;;;19.38;12.13;;;;;;;;;;5027517;28;20235;-49
2021/12/23 14:52:40;;;;;;;27.00;13.63;;;;;;;;;;5022834;28;20222;-49
2021/12/23 14:55:36;;;;;;;24.40;13.05;;;;;;;;;;5013635;28;20180;-49
2021/12/23 14:58:03;;;;;;;19.75;11.60;;;;;;;;;;5007708;28;20190;-49
2021/12/23 15:00:30;;;;;;;19.52;12.10;;;;;;;;;;5022209;28;20203;-49
2021/12/23 15:03:00;;;;;;;24.40;13.48;;;;;;;;;;5023463;28;20250;-50
2021/12/23 15:05:27;;;;;;;25.15;12.20;;;;;;;;;;5020595;28;20246;-51
2021/12/23 15:08:01;;;;;;;20.42;11.98;;;;;;;;;;5021431;28;20169;-49
2021/12/23 15:10:45;;;;;;;22.60;13.80;;;;;;;;;;5021796;28;20192;-49
2021/12/23 15:13:29;;;;;;;22.83;12.80;;;;;;;;;;5032595;28;20176;-50
2021/12/23 15:15:57;;;;;;;18.73;11.95;;;;;;;;;;5030604;28;20183;-50
2021/12/23 15:18:32;;;;;;;23.35;13.05;;;;;;;;;;5032731;28;20164;-50
2021/12/23 15:20:58;;;;;;;21.63;12.80;;;;;;;;;;5030121;28;20176;-50
2021/12/23 15:23:44;;;;;;;23.42;12.77;;;;;;;;;;5032386;28;20163;-50
2021/12/23 15:26:29;;;;;;;29.40;13.50;;;;;;;;;;5032279;28;20279;-50
2021/12/23 15:29:05;;;;;;;20.60;11.60;;;;;;;;;;5032970;28;20187;-51
2021/12/23 15:31:31;;;;;;;18.45;11.48;;;;;;;;;;5032388;28;20679;-50
2021/12/23 15:33:57;;;;;;;22.73;13.13;;;;;;;;;;5032759;28;20172;-50
2021/12/23 15:36:23;;;;;;;25.42;13.98;;;;;;;;;;5032245;28;20410;-50